Time;durP1;ratioP1;P1;durP2;ratioP2;P2;SDS_P1;SDS_P2;PMS_P1;PMS_P2;Temp;Humidity;BMP_temperature;BMP_pressure;BME280_temperature;BME280_humidity;BME280_pressure;Samples;Min_cycle;Max_cycle;Signal;HPM_P1;HPM_P2
2022/08/23 05:59:59;;;;;;;5.70;4.65;;;;;;;;;;10501606;28;20409;-81
2022/08/23 06:05:01;;;;;;;4.50;3.70;;;;;;;;;;10497831;28;20033;-79
2022/08/23 06:10:03;;;;;;;4.40;3.08;;;;;;;;;;10498442;28;20117;-79
2022/08/23 06:15:04;;;;;;;4.18;3.60;;;;;;;;;;10500820;28;20025;-79
2022/08/23 06:20:06;;;;;;;4.50;3.15;;;;;;;;;;10501349;28;20027;-79
2022/08/23 06:25:08;;;;;;;5.65;3.53;;;;;;;;;;10500912;28;20431;-79
2022/08/23 06:30:09;;;;;;;6.85;3.60;;;;;;;;;;10500902;28;20020;-79
2022/08/23 06:35:10;;;;;;;3.90;3.10;;;;;;;;;;10504678;28;20056;-81
2022/08/23 06:40:11;;;;;;;2.45;2.25;;;;;;;;;;10507038;28;20123;-80
2022/08/23 06:45:13;;;;;;;2.63;2.42;;;;;;;;;;10510310;28;20036;-81
2022/08/23 06:50:14;;;;;;;4.40;2.75;;;;;;;;;;10511848;28;20039;-81
2022/08/23 06:55:15;;;;;;;4.40;2.80;;;;;;;;;;10510450;28;20049;-81
2022/08/23 07:00:16;;;;;;;7.47;5.05;;;;;;;;;;10511940;28;20029;-83
2022/08/23 07:05:17;;;;;;;4.82;3.22;;;;;;;;;;10508864;28;20115;-84
2022/08/23 07:10:18;;;;;;;5.32;3.20;;;;;;;;;;10497262;28;20028;-85
2022/08/23 07:15:19;;;;;;;16.88;3.55;;;;;;;;;;10495819;28;20025;-86
2022/08/23 07:20:20;;;;;;;5.35;3.13;;;;;;;;;;10499333;28;20044;-85
2022/08/23 07:25:38;;;;;;;;;;;;;;;;;;;;;
2022/08/23 07:30:44;;;;;;;6.32;3.22;;;;;;;;;;10497737;28;20043;-85
2022/08/23 07:35:48;;;;;;;7.05;3.45;;;;;;;;;;10488251;28;20025;-84
2022/08/23 07:40:49;;;;;;;5.60;3.42;;;;;;;;;;10492863;28;20021;-84
2022/08/23 07:45:50;;;;;;;6.90;4.03;;;;;;;;;;10495455;28;20055;-86
2022/08/23 07:50:52;;;;;;;5.38;3.08;;;;;;;;;;10497772;28;20029;-84
2022/08/23 07:55:53;;;;;;;6.07;3.40;;;;;;;;;;10491894;28;20119;-87
2022/08/23 08:00:55;;;;;;;6.43;3.45;;;;;;;;;;10494156;28;20536;-85
2022/08/23 08:05:56;;;;;;;6.60;4.13;;;;;;;;;;10496411;28;20017;-86
2022/08/23 08:10:57;;;;;;;4.68;3.20;;;;;;;;;;10497994;28;20131;-85
2022/08/23 08:15:58;;;;;;;7.18;3.88;;;;;;;;;;10495980;28;20029;-85
2022/08/23 08:21:00;;;;;;;5.63;4.50;;;;;;;;;;10503249;28;20051;-82
2022/08/23 08:26:04;;;;;;;6.07;3.80;;;;;;;;;;10504947;28;20032;-85
2022/08/23 08:31:09;;;;;;;7.43;3.85;;;;;;;;;;10504087;28;20057;-86
2022/08/23 08:36:26;;;;;;;6.45;4.10;;;;;;;;;;10504364;28;20084;-86
2022/08/23 08:41:48;;;;;;;6.20;3.83;;;;;;;;;;10500247;28;20032;-86
2022/08/23 08:46:55;;;;;;;8.35;4.22;;;;;;;;;;10500451;28;20025;-86
2022/08/23 08:52:00;;;;;;;5.93;3.80;;;;;;;;;;10499152;28;20002;-86
2022/08/23 08:57:01;;;;;;;7.35;3.70;;;;;;;;;;10503121;28;20048;-85
2022/08/23 09:02:07;;;;;;;7.35;4.15;;;;;;;;;;10500974;28;20028;-85
2022/08/23 09:07:26;;;;;;;6.72;4.60;;;;;;;;;;10494798;28;20029;-84
2022/08/23 09:12:53;;;;;;;6.00;4.47;;;;;;;;;;10497822;28;20039;-85
2022/08/23 09:17:57;;;;;;;10.50;6.50;;;;;;;;;;10496222;28;20048;-86
2022/08/23 09:23:11;;;;;;;5.88;3.95;;;;;;;;;;10503304;28;20039;-87
2022/08/23 09:28:13;;;;;;;7.35;4.53;;;;;;;;;;10495870;28;20021;-85
2022/08/23 09:33:25;;;;;;;8.70;4.13;;;;;;;;;;10492858;28;20033;-87
2022/08/23 09:38:30;;;;;;;6.72;4.20;;;;;;;;;;10490761;28;20073;-86
2022/08/23 09:43:42;;;;;;;5.85;4.10;;;;;;;;;;10494456;28;20021;-85
2022/08/23 09:48:45;;;;;;;8.00;3.97;;;;;;;;;;10500522;28;20033;-86
2022/08/23 09:54:05;;;;;;;6.28;4.13;;;;;;;;;;10500423;28;20025;-86
2022/08/23 09:59:38;;;;;;;7.28;3.88;;;;;;;;;;10500236;28;20104;-86
2022/08/23 10:04:44;;;;;;;6.18;3.50;;;;;;;;;;10497239;28;20036;-87
2022/08/23 10:09:45;;;;;;;7.97;4.72;;;;;;;;;;10503300;28;20011;-84
2022/08/23 10:14:46;;;;;;;6.05;3.72;;;;;;;;;;10481606;28;20064;-84
2022/08/23 10:19:58;;;;;;;5.43;3.50;;;;;;;;;;10482224;28;20112;-85
2022/08/23 10:25:11;;;;;;;7.32;3.78;;;;;;;;;;10481537;28;20031;-83
2022/08/23 10:30:14;;;;;;;7.90;4.50;;;;;;;;;;10472841;28;20125;-83
2022/08/23 10:35:34;;;;;;;7.85;3.88;;;;;;;;;;10466818;28;20029;-84
2022/08/23 10:40:47;;;;;;;4.53;3.50;;;;;;;;;;10471445;28;20013;-84
2022/08/23 10:45:48;;;;;;;4.35;3.55;;;;;;;;;;10502606;28;20029;-83
2022/08/23 10:50:54;;;;;;;7.18;4.50;;;;;;;;;;10502131;28;20084;-82
2022/08/23 10:56:03;;;;;;;9.90;5.05;;;;;;;;;;10488797;28;20040;-83
2022/08/23 11:01:04;;;;;;;11.33;5.67;;;;;;;;;;10479971;28;20102;-82
2022/08/23 11:06:24;;;;;;;5.80;4.45;;;;;;;;;;10483686;28;20020;-82
2022/08/23 11:11:44;;;;;;;11.73;4.68;;;;;;;;;;10489688;28;20079;-82
2022/08/23 11:16:46;;;;;;;6.43;3.97;;;;;;;;;;10480281;28;20021;-82
2022/08/23 11:21:47;;;;;;;8.30;4.30;;;;;;;;;;10484785;28;20482;-85
2022/08/23 11:26:51;;;;;;;7.97;5.28;;;;;;;;;;10469766;28;20116;-82
2022/08/23 11:32:14;;;;;;;7.75;4.28;;;;;;;;;;10474189;28;20033;-84
2022/08/23 11:37:18;;;;;;;8.18;7.35;;;;;;;;;;10473841;28;20471;-84
2022/08/23 11:42:19;;;;;;;6.50;4.10;;;;;;;;;;10473798;28;20032;-83
2022/08/23 11:47:31;;;;;;;6.10;4.57;;;;;;;;;;10475454;28;20395;-83
2022/08/23 11:52:49;;;;;;;9.38;5.85;;;;;;;;;;10472304;28;20082;-83
2022/08/23 11:57:57;;;;;;;5.40;4.03;;;;;;;;;;10472395;28;20032;-83
2022/08/23 12:03:00;;;;;;;6.70;4.80;;;;;;;;;;10473743;28;20171;-84
2022/08/23 12:08:04;;;;;;;6.35;3.65;;;;;;;;;;10472702;28;20052;-83
2022/08/23 12:13:18;;;;;;;6.55;3.63;;;;;;;;;;10474014;28;20021;-83
2022/08/23 12:18:20;;;;;;;7.47;3.80;;;;;;;;;;10468663;28;20043;-83
2022/08/23 12:23:21;;;;;;;4.88;3.63;;;;;;;;;;10471804;28;20100;-84
2022/08/23 12:28:42;;;;;;;4.78;3.50;;;;;;;;;;10466777;28;20135;-83
2022/08/23 12:33:43;;;;;;;4.78;2.80;;;;;;;;;;10470230;28;20024;-84
2022/08/23 12:39:03;;;;;;;4.60;3.05;;;;;;;;;;10469126;28;20035;-84
2022/08/23 12:44:06;;;;;;;4.05;2.80;;;;;;;;;;10474162;28;20466;-83
2022/08/23 12:49:09;;;;;;;4.20;2.75;;;;;;;;;;10469115;28;20025;-83
2022/08/23 12:54:16;;;;;;;5.60;2.88;;;;;;;;;;10470245;28;20094;-83
2022/08/23 12:59:30;;;;;;;4.47;2.90;;;;;;;;;;10472703;28;20079;-83
2022/08/23 13:04:37;;;;;;;6.75;2.70;;;;;;;;;;10471645;28;20017;-84
2022/08/23 13:09:39;;;;;;;4.40;2.70;;;;;;;;;;10470022;28;20033;-83
2022/08/23 13:14:40;;;;;;;4.22;3.60;;;;;;;;;;10471818;28;20139;-83
2022/08/23 13:19:41;;;;;;;5.95;3.45;;;;;;;;;;10486744;28;20040;-84
2022/08/23 13:24:54;;;;;;;4.82;3.60;;;;;;;;;;10482028;28;20060;-84
2022/08/23 13:30:18;;;;;;;4.18;3.42;;;;;;;;;;10472229;28;20107;-84
2022/08/23 13:35:29;;;;;;;6.00;2.95;;;;;;;;;;10471784;28;20123;-83
2022/08/23 13:40:38;;;;;;;4.30;2.90;;;;;;;;;;10471180;28;20120;-84
2022/08/23 13:45:48;;;;;;;5.03;2.85;;;;;;;;;;10469801;28;20361;-84
2022/08/23 13:50:50;;;;;;;6.80;3.08;;;;;;;;;;10474287;28;20395;-85
2022/08/23 13:55:53;;;;;;;4.18;2.58;;;;;;;;;;10470277;28;20040;-85
2022/08/23 14:00:54;;;;;;;5.80;3.22;;;;;;;;;;10471661;28;20025;-85
2022/08/23 14:05:55;;;;;;;4.78;3.03;;;;;;;;;;10473395;28;20036;-85
2022/08/23 14:11:00;;;;;;;6.47;3.08;;;;;;;;;;10472587;28;20028;-83
2022/08/23 14:16:02;;;;;;;3.20;2.72;;;;;;;;;;10469992;28;20032;-84
2022/08/23 14:21:04;;;;;;;5.90;3.67;;;;;;;;;;10477038;28;20123;-84
2022/08/23 14:26:05;;;;;;;4.15;2.40;;;;;;;;;;10478593;28;20029;-82
2022/08/23 14:31:06;;;;;;;8.70;3.63;;;;;;;;;;10476272;28;20183;-82
2022/08/23 14:36:08;;;;;;;6.30;3.95;;;;;;;;;;10474474;28;20064;-83
2022/08/23 14:41:10;;;;;;;6.10;3.03;;;;;;;;;;10474784;28;20021;-83
2022/08/23 14:46:11;;;;;;;6.45;2.75;;;;;;;;;;10478775;28;20088;-83
2022/08/23 14:51:21;;;;;;;7.10;3.13;;;;;;;;;;10484615;28;20025;-83
2022/08/23 14:56:22;;;;;;;4.60;3.40;;;;;;;;;;10480067;28;20052;-82
2022/08/23 15:01:23;;;;;;;4.68;3.97;;;;;;;;;;10490457;28;20035;-82
2022/08/23 15:06:24;;;;;;;4.13;3.22;;;;;;;;;;10494339;28;20142;-84
2022/08/23 15:11:25;;;;;;;18.30;5.07;;;;;;;;;;10482269;28;20029;-83
2022/08/23 15:16:28;;;;;;;6.57;5.13;;;;;;;;;;10498276;28;20027;-79
2022/08/23 15:21:29;;;;;;;5.88;3.10;;;;;;;;;;10491512;28;20017;-87
2022/08/23 15:26:39;;;;;;;7.30;3.33;;;;;;;;;;10487939;28;20029;-87
2022/08/23 15:31:40;;;;;;;4.80;2.70;;;;;;;;;;10485544;28;20040;-85
2022/08/23 15:36:42;;;;;;;8.45;3.80;;;;;;;;;;10487830;28;20021;-86
2022/08/23 15:41:43;;;;;;;5.32;3.20;;;;;;;;;;10480640;28;20048;-85
2022/08/23 15:46:46;;;;;;;5.55;3.15;;;;;;;;;;10479968;28;20072;-86
2022/08/23 15:51:47;;;;;;;4.95;3.10;;;;;;;;;;10481223;28;20029;-86
2022/08/23 15:56:49;;;;;;;5.68;2.83;;;;;;;;;;10484412;28;20021;-87
2022/08/23 16:01:50;;;;;;;7.43;3.17;;;;;;;;;;10486678;28;20081;-86
2022/08/23 16:06:51;;;;;;;5.63;3.40;;;;;;;;;;10483732;28;20033;-87
2022/08/23 16:11:52;;;;;;;5.10;2.85;;;;;;;;;;10479763;28;20053;-87
2022/08/23 16:16:53;;;;;;;6.25;3.60;;;;;;;;;;10483054;28;20025;-85
2022/08/23 16:21:55;;;;;;;5.40;2.65;;;;;;;;;;10479960;28;20029;-81
2022/08/23 16:26:56;;;;;;;7.13;4.65;;;;;;;;;;10481623;28;20091;-82
2022/08/23 16:31:57;;;;;;;5.88;3.97;;;;;;;;;;10476687;28;20438;-81
2022/08/23 16:37:00;;;;;;;5.43;3.20;;;;;;;;;;10476790;28;20125;-82
2022/08/23 16:42:03;;;;;;;4.07;2.60;;;;;;;;;;10471573;28;20076;-82
2022/08/23 16:47:06;;;;;;;4.72;3.05;;;;;;;;;;10470227;28;20036;-82
2022/08/23 16:52:07;;;;;;;4.40;2.90;;;;;;;;;;10472769;28;20043;-82
2022/08/23 16:57:08;;;;;;;3.13;2.67;;;;;;;;;;10472220;28;20037;-81
2022/08/23 17:02:19;;;;;;;9.38;2.90;;;;;;;;;;10473328;28;20059;-82
2022/08/23 17:07:20;;;;;;;5.47;2.60;;;;;;;;;;10474842;28;20079;-82
2022/08/23 17:12:25;;;;;;;4.03;2.90;;;;;;;;;;10479570;28;20029;-81
2022/08/23 17:17:27;;;;;;;6.05;2.80;;;;;;;;;;10490741;28;20116;-82
2022/08/23 17:22:33;;;;;;;5.10;2.50;;;;;;;;;;10478715;28;20021;-83
2022/08/23 17:27:35;;;;;;;6.60;2.47;;;;;;;;;;10483141;28;20040;-82
2022/08/23 17:32:37;;;;;;;7.65;2.33;;;;;;;;;;10484561;28;20025;-82
2022/08/23 17:37:39;;;;;;;5.43;3.22;;;;;;;;;;10481879;28;20095;-83
2022/08/23 17:42:40;;;;;;;5.65;2.50;;;;;;;;;;10464767;28;20028;-83
2022/08/23 17:47:49;;;;;;;5.03;2.30;;;;;;;;;;10482378;28;20479;-82
2022/08/23 17:52:50;;;;;;;6.07;2.15;;;;;;;;;;10465311;28;20112;-83
2022/08/23 17:57:51;;;;;;;7.60;2.53;;;;;;;;;;10465210;28;20037;-82
2022/08/23 18:02:52;;;;;;;5.72;3.33;;;;;;;;;;10464282;28;20029;-82
2022/08/23 18:07:53;;;;;;;4.15;2.50;;;;;;;;;;10465774;28;20376;-81
2022/08/23 18:12:55;;;;;;;3.97;2.25;;;;;;;;;;10464743;28;20025;-82
2022/08/23 18:17:57;;;;;;;6.45;2.08;;;;;;;;;;10462355;28;20536;-81
2022/08/23 18:22:59;;;;;;;4.63;2.00;;;;;;;;;;10463081;28;20021;-81
2022/08/23 18:28:07;;;;;;;3.45;2.40;;;;;;;;;;10464361;28;20029;-81
2022/08/23 18:33:08;;;;;;;6.22;2.60;;;;;;;;;;10470363;28;20098;-82
2022/08/23 18:38:11;;;;;;;3.10;1.90;;;;;;;;;;10469046;28;20025;-82
2022/08/23 18:43:17;;;;;;;4.40;2.60;;;;;;;;;;10466872;28;20485;-82
2022/08/23 18:48:18;;;;;;;3.83;2.60;;;;;;;;;;10466535;28;20064;-81
2022/08/23 18:53:19;;;;;;;5.32;3.00;;;;;;;;;;10471879;28;20029;-81
2022/08/23 18:58:20;;;;;;;4.32;3.00;;;;;;;;;;10466515;28;20037;-82
2022/08/23 19:03:21;;;;;;;5.43;2.85;;;;;;;;;;10466127;28;20060;-82
2022/08/23 19:08:22;;;;;;;5.40;3.08;;;;;;;;;;10472334;28;20028;-82
2022/08/23 19:13:23;;;;;;;5.15;3.10;;;;;;;;;;10475204;28;20129;-81
2022/08/23 19:18:25;;;;;;;4.57;3.20;;;;;;;;;;10488125;28;20036;-81
2022/08/23 19:23:27;;;;;;;6.68;3.75;;;;;;;;;;10469790;28;20472;-82
